createdAt,value
2018-01-18T00:00:51.671Z,4.22
2018-01-18T00:03:21.578Z,2.60
2018-01-18T00:05:51.456Z,2.67
2018-01-18T00:08:22.080Z,2.85
2018-01-18T00:10:51.972Z,3.80
2018-01-18T00:13:21.784Z,2.67
2018-01-18T00:15:52.439Z,2.90
2018-01-18T00:18:25.237Z,3.95
2018-01-18T00:20:55.929Z,3.10
2018-01-18T00:23:25.823Z,2.60
2018-01-18T00:25:55.687Z,3.72
2018-01-18T00:28:26.253Z,3.12
2018-01-18T00:30:57.367Z,3.22
2018-01-18T00:33:29.688Z,2.75
2018-01-18T00:36:00.166Z,3.22
2018-01-18T00:38:30.080Z,3.20
2018-01-18T00:40:59.927Z,4.00
2018-01-18T00:43:29.779Z,3.25
2018-01-18T00:46:00.366Z,4.37
2018-01-18T00:48:30.253Z,3.08
2018-01-18T00:51:00.097Z,3.35
2018-01-18T00:53:30.524Z,3.42
2018-01-18T00:56:00.363Z,3.85
2018-01-18T00:58:30.195Z,3.70
2018-01-18T01:01:00.984Z,3.85
2018-01-18T01:03:30.798Z,4.03
2018-01-18T01:06:00.681Z,3.70
2018-01-18T01:08:30.527Z,4.95
2018-01-18T01:11:00.432Z,3.83
2018-01-18T01:13:30.268Z,3.12
2018-01-18T01:16:00.139Z,3.60
2018-01-18T01:18:29.967Z,3.70
2018-01-18T01:20:59.833Z,3.87
2018-01-18T01:23:29.627Z,3.55
2018-01-18T01:25:59.488Z,4.30
2018-01-18T01:28:29.316Z,3.55
2018-01-18T01:30:59.155Z,3.30
2018-01-18T01:33:28.991Z,3.83
2018-01-18T01:35:59.599Z,3.42
2018-01-18T01:38:29.395Z,3.35
2018-01-18T01:40:59.292Z,4.12
2018-01-18T01:43:29.165Z,4.18
2018-01-18T01:45:59.239Z,2.42
2018-01-18T01:48:38.276Z,2.12
2018-01-18T01:51:08.088Z,3.25
2018-01-18T01:53:37.920Z,3.20
2018-01-18T01:56:07.743Z,3.00
2018-01-18T01:58:37.621Z,4.00
2018-01-18T02:01:07.479Z,3.20
2018-01-18T02:03:38.112Z,3.05
2018-01-18T02:06:08.719Z,2.65
2018-01-18T02:08:39.508Z,3.20
2018-01-18T02:11:10.107Z,3.17
2018-01-18T02:13:40.736Z,3.20
2018-01-18T02:16:12.051Z,2.70
2018-01-18T02:18:41.901Z,3.53
2018-01-18T02:21:11.762Z,3.12
2018-01-18T02:23:41.604Z,3.65
2018-01-18T02:26:11.477Z,4.70
2018-01-18T02:28:41.323Z,4.15
2018-01-18T02:31:11.200Z,4.68
2018-01-18T02:33:41.014Z,3.90
2018-01-18T02:36:10.903Z,4.43
2018-01-18T02:38:41.728Z,4.78
2018-01-18T02:41:11.564Z,5.37
2018-01-18T02:43:42.232Z,5.05
2018-01-18T02:46:12.107Z,5.25
2018-01-18T02:48:42.745Z,4.68
2018-01-18T02:51:13.374Z,5.43
2018-01-18T02:53:43.983Z,5.00
2018-01-18T02:56:13.867Z,4.70
2018-01-18T02:58:43.734Z,5.43
2018-01-18T03:01:13.419Z,5.22
2018-01-18T03:03:43.256Z,5.57
2018-01-18T03:06:13.899Z,5.62
2018-01-18T03:08:43.775Z,5.03
2018-01-18T03:11:13.722Z,5.68
2018-01-18T03:13:43.605Z,6.60
2018-01-18T03:16:14.084Z,4.68
2018-01-18T03:18:43.954Z,5.37
2018-01-18T03:21:14.237Z,6.43
2018-01-18T03:23:44.091Z,6.00
2018-01-18T03:26:13.962Z,6.82
2018-01-18T03:28:43.822Z,6.85
2018-01-18T03:31:13.728Z,6.87
2018-01-18T03:33:43.593Z,6.35
2018-01-18T03:36:13.412Z,6.07
2018-01-18T03:38:43.263Z,6.75
2018-01-18T03:41:13.167Z,7.03
2018-01-18T03:43:43.016Z,6.95
2018-01-18T03:46:12.873Z,6.40
2018-01-18T03:48:42.709Z,6.18
2018-01-18T03:51:12.519Z,7.07
2018-01-18T03:53:42.365Z,5.97
2018-01-18T03:56:12.440Z,5.78
2018-01-18T03:58:42.292Z,6.85
2018-01-18T04:01:12.198Z,6.72
2018-01-18T04:03:42.084Z,6.43
2018-01-18T04:06:11.971Z,5.75
2018-01-18T04:08:41.678Z,5.93
2018-01-18T04:11:12.099Z,5.75
2018-01-18T04:13:42.723Z,6.10
2018-01-18T04:16:13.295Z,5.45
2018-01-18T04:18:43.928Z,5.90
2018-01-18T04:21:14.539Z,4.68
2018-01-18T04:23:45.172Z,5.62
2018-01-18T04:26:15.052Z,6.03
2018-01-18T04:28:44.947Z,5.18
2018-01-18T04:31:14.783Z,4.68
2018-01-18T04:33:44.697Z,4.95
2018-01-18T04:36:14.543Z,5.00
2018-01-18T04:38:44.450Z,5.28
2018-01-18T04:41:14.263Z,5.07
2018-01-18T04:43:44.099Z,5.25
2018-01-18T04:46:15.043Z,5.47
2018-01-18T04:48:45.340Z,5.55
2018-01-18T04:51:15.281Z,5.75
2018-01-18T04:53:45.164Z,4.78
2018-01-18T04:56:14.996Z,4.93
2018-01-18T04:58:44.828Z,4.62
2018-01-18T05:01:15.895Z,4.80
2018-01-18T05:03:45.724Z,5.97
2018-01-18T05:06:15.563Z,4.35
2018-01-18T05:08:45.395Z,3.95
2018-01-18T05:11:15.390Z,3.83
2018-01-18T05:13:45.224Z,5.32
2018-01-18T05:16:15.116Z,4.25
2018-01-18T05:18:44.924Z,4.28
2018-01-18T05:21:14.788Z,4.55
2018-01-18T05:23:44.448Z,4.82
2018-01-18T05:26:14.311Z,5.25
2018-01-18T05:28:43.952Z,3.95
2018-01-18T05:31:13.963Z,4.32
2018-01-18T05:33:43.796Z,4.10
2018-01-18T05:36:13.626Z,6.32
2018-01-18T05:38:43.475Z,4.80
2018-01-18T05:41:14.139Z,4.18
2018-01-18T05:43:44.030Z,5.12
2018-01-18T05:46:13.892Z,4.75
2018-01-18T05:48:44.538Z,5.22
2018-01-18T05:51:14.091Z,5.72
2018-01-18T05:53:43.745Z,5.20
2018-01-18T05:56:13.654Z,6.37
2018-01-18T05:58:43.553Z,6.50
2018-01-18T06:01:13.399Z,6.65
2018-01-18T06:03:43.219Z,6.50
2018-01-18T06:06:13.840Z,6.43
2018-01-18T06:08:43.696Z,5.90
2018-01-18T06:11:13.575Z,6.87
2018-01-18T06:13:43.486Z,6.57
2018-01-18T06:16:13.341Z,6.60
2018-01-18T06:18:43.287Z,5.25
2018-01-18T06:21:13.171Z,4.85
2018-01-18T06:23:43.023Z,5.43
2018-01-18T06:26:12.902Z,5.68
2018-01-18T06:28:43.639Z,6.00
2018-01-18T06:31:13.517Z,5.95
2018-01-18T06:33:43.371Z,6.50
2018-01-18T06:36:14.028Z,5.95
2018-01-18T06:38:44.660Z,5.78
2018-01-18T06:41:15.672Z,5.72
2018-01-18T06:43:45.623Z,6.10
2018-01-18T06:46:15.483Z,5.72
2018-01-18T06:48:46.124Z,5.85
2018-01-18T06:51:15.995Z,5.30
2018-01-18T06:53:45.859Z,5.80
2018-01-18T06:56:15.725Z,3.90
2018-01-18T06:58:45.633Z,5.28
2018-01-18T07:01:15.579Z,4.72
2018-01-18T07:03:45.439Z,4.57
2018-01-18T07:06:15.398Z,5.12
2018-01-18T07:08:45.273Z,4.12
2018-01-18T07:11:15.919Z,4.43
2018-01-18T07:13:45.740Z,2.45
2018-01-18T07:16:15.579Z,4.30
2018-01-18T07:18:45.418Z,2.90
2018-01-18T07:21:15.348Z,4.20
2018-01-18T07:23:45.195Z,6.50
2018-01-18T07:26:15.035Z,3.30
2018-01-18T07:28:44.895Z,4.68
2018-01-18T07:31:15.472Z,3.45
2018-01-18T07:33:45.308Z,3.87
2018-01-18T07:36:15.129Z,3.33
2018-01-18T07:38:44.951Z,3.75
2018-01-18T07:41:14.775Z,4.20
2018-01-18T07:43:45.412Z,3.50
2018-01-18T07:46:15.276Z,3.20
2018-01-18T07:48:44.864Z,3.00
2018-01-18T07:51:14.693Z,3.78
2018-01-18T07:53:44.792Z,3.67
2018-01-18T07:56:14.627Z,3.30
2018-01-18T07:58:44.473Z,3.50
2018-01-18T08:01:14.314Z,3.17
2018-01-18T08:03:50.359Z,2.53
2018-01-18T08:06:21.611Z,4.03
2018-01-18T08:08:52.303Z,4.70
2018-01-18T08:11:22.173Z,4.10
2018-01-18T08:13:52.764Z,3.12
2018-01-18T08:16:22.600Z,3.17
2018-01-18T08:18:53.094Z,3.95
2018-01-18T08:21:22.951Z,3.10
2018-01-18T08:23:53.263Z,3.33
2018-01-18T08:26:23.186Z,3.87
2018-01-18T08:28:53.112Z,3.45
2018-01-18T08:31:24.246Z,2.90
2018-01-18T08:33:54.160Z,2.28
2018-01-18T08:36:24.091Z,3.17
2018-01-18T08:38:54.365Z,3.33
2018-01-18T08:41:24.252Z,3.37
2018-01-18T08:43:54.187Z,2.70
2018-01-18T08:46:24.313Z,2.40
2018-01-18T08:48:54.163Z,1.98
2018-01-18T08:51:24.046Z,3.00
2018-01-18T08:53:53.944Z,2.50
2018-01-18T08:56:23.820Z,2.42
2018-01-18T08:58:55.145Z,3.15
2018-01-18T09:01:25.125Z,2.15
2018-01-18T09:03:55.450Z,2.87
2018-01-18T09:06:25.367Z,1.85
2018-01-18T09:08:55.343Z,3.78
2018-01-18T09:11:25.312Z,2.78
2018-01-18T09:13:58.292Z,2.70
2018-01-18T09:16:29.279Z,2.20
2018-01-18T09:19:00.797Z,1.98
2018-01-18T09:21:30.580Z,2.60
2018-01-18T09:24:00.784Z,1.80
2018-01-18T09:26:30.668Z,2.72
2018-01-18T09:29:00.530Z,3.22
2018-01-18T09:31:30.412Z,2.80
2018-01-18T09:34:00.295Z,2.90
2018-01-18T09:36:30.172Z,2.12
2018-01-18T09:38:59.733Z,2.45
2018-01-18T09:41:29.664Z,3.10
2018-01-18T09:43:59.495Z,3.15
2018-01-18T09:46:29.388Z,2.65
2018-01-18T09:48:59.213Z,1.45
2018-01-18T09:51:29.206Z,2.35
2018-01-18T09:53:59.013Z,3.55
2018-01-18T09:56:29.741Z,2.35
2018-01-18T09:58:59.587Z,2.95
2018-01-18T10:01:29.411Z,2.60
2018-01-18T10:03:59.268Z,2.05
2018-01-18T10:06:29.868Z,2.60
2018-01-18T10:08:59.803Z,2.55
2018-01-18T10:11:29.684Z,2.40
2018-01-18T10:13:59.522Z,2.45
2018-01-18T10:16:29.342Z,2.45
2018-01-18T10:18:59.173Z,2.83
2018-01-18T10:21:29.852Z,3.50
2018-01-18T10:23:59.678Z,3.28
2018-01-18T10:26:29.761Z,3.42
2018-01-18T10:28:59.631Z,3.40
2018-01-18T10:31:29.460Z,2.90
2018-01-18T10:33:59.294Z,2.92
2018-01-18T10:36:29.250Z,2.80
2018-01-18T10:38:59.024Z,2.67
2018-01-18T10:41:29.596Z,2.22
2018-01-18T10:43:59.439Z,2.35
2018-01-18T10:46:29.268Z,2.50
2018-01-18T10:48:59.139Z,2.03
2018-01-18T10:51:28.979Z,2.95
2018-01-18T10:53:58.791Z,2.60
2018-01-18T10:56:28.722Z,2.72
2018-01-18T10:58:58.744Z,3.50
2018-01-18T11:01:28.607Z,3.22
2018-01-18T11:03:58.089Z,2.85
2018-01-18T11:06:28.127Z,2.67
2018-01-18T11:08:58.100Z,2.30
2018-01-18T11:11:28.676Z,2.05
2018-01-18T11:13:58.755Z,2.45
2018-01-18T11:16:29.359Z,2.40
2018-01-18T11:18:59.192Z,1.80
2018-01-18T11:21:31.446Z,2.50
2018-01-18T11:24:01.280Z,2.10
2018-01-18T11:26:31.159Z,2.65
2018-01-18T11:29:00.984Z,2.65
2018-01-18T11:31:31.597Z,3.28
2018-01-18T11:34:01.455Z,3.10
2018-01-18T11:36:31.318Z,2.12
2018-01-18T11:39:01.940Z,2.72
2018-01-18T11:41:31.507Z,3.00
2018-01-18T11:44:01.780Z,1.48
2018-01-18T11:46:31.583Z,2.70
2018-01-18T11:49:01.440Z,2.95
2018-01-18T11:51:31.296Z,2.75
2018-01-18T11:54:01.162Z,3.22
2018-01-18T11:56:31.024Z,2.40
2018-01-18T11:59:00.858Z,2.15
2018-01-18T12:01:30.692Z,2.20
2018-01-18T12:04:00.520Z,1.95
2018-01-18T12:06:30.363Z,3.53
2018-01-18T12:09:00.182Z,2.10
2018-01-18T12:11:30.760Z,2.60
2018-01-18T12:14:00.603Z,2.50
2018-01-18T12:16:30.396Z,2.90
2018-01-18T12:19:00.375Z,2.12
2018-01-18T12:21:31.051Z,2.90
2018-01-18T12:24:01.051Z,1.60
2018-01-18T12:26:30.889Z,2.80
2018-01-18T12:29:01.491Z,2.40
2018-01-18T12:31:31.331Z,2.33
2018-01-18T12:34:01.945Z,2.28
2018-01-18T12:36:32.576Z,2.53
2018-01-18T12:39:03.019Z,2.92
2018-01-18T12:41:32.640Z,2.30
2018-01-18T12:44:02.460Z,2.40
2018-01-18T12:46:32.380Z,2.30
2018-01-18T12:49:02.235Z,2.20
2018-01-18T12:51:32.063Z,1.70
2018-01-18T12:54:01.901Z,1.75
2018-01-18T12:56:31.767Z,2.25
2018-01-18T12:59:01.667Z,1.92
2018-01-18T13:01:31.479Z,1.70
2018-01-18T13:04:01.323Z,1.80
2018-01-18T13:06:31.135Z,1.80
2018-01-18T13:09:01.995Z,1.62
2018-01-18T13:11:32.602Z,2.50
2018-01-18T13:14:02.472Z,1.85
2018-01-18T13:16:32.305Z,1.58
2018-01-18T13:19:02.139Z,1.60
2018-01-18T13:21:32.091Z,1.08
2018-01-18T13:24:02.684Z,1.23
2018-01-18T13:26:32.533Z,1.80
2018-01-18T13:29:02.432Z,0.68
2018-01-18T13:31:32.998Z,1.05
2018-01-18T13:34:02.965Z,0.90
2018-01-18T13:36:32.853Z,1.40
2018-01-18T13:39:02.810Z,0.90
2018-01-18T13:41:32.388Z,1.10
2018-01-18T13:44:02.405Z,1.08
2018-01-18T13:46:34.242Z,0.95
2018-01-18T13:49:04.095Z,1.23
2018-01-18T13:51:33.987Z,0.88
2018-01-18T13:54:03.892Z,1.00
2018-01-18T13:56:33.907Z,0.80
2018-01-18T13:59:03.813Z,1.05
2018-01-18T14:01:33.631Z,0.90
2018-01-18T14:04:03.500Z,1.08
2018-01-18T14:06:33.316Z,0.93
2018-01-18T14:09:03.000Z,0.77
2018-01-18T14:11:32.825Z,1.00
2018-01-18T14:14:02.692Z,1.70
2018-01-18T14:16:32.550Z,1.15
2018-01-18T14:19:02.390Z,1.50
2018-01-18T14:21:33.057Z,2.25
2018-01-18T14:24:02.944Z,2.10
2018-01-18T14:26:33.715Z,1.55
2018-01-18T14:29:03.609Z,1.17
2018-01-18T14:31:33.515Z,1.40
2018-01-18T14:34:04.056Z,1.70
2018-01-18T14:36:33.712Z,1.25
2018-01-18T14:39:03.007Z,1.25
2018-01-18T14:41:35.947Z,1.20
2018-01-18T14:44:08.679Z,1.17
2018-01-18T14:46:38.751Z,0.90
2018-01-18T14:49:08.568Z,1.33
2018-01-18T14:51:38.451Z,1.12
2018-01-18T14:54:08.325Z,0.93
2018-01-18T14:56:38.208Z,1.00
2018-01-18T14:59:08.018Z,1.12
2018-01-18T15:01:38.679Z,0.70
2018-01-18T15:04:08.855Z,1.00
2018-01-18T15:06:39.475Z,0.95
2018-01-18T15:09:09.318Z,1.10
2018-01-18T15:11:39.187Z,0.85
2018-01-18T15:14:09.058Z,0.75
2018-01-18T15:16:39.001Z,0.95
2018-01-18T15:19:08.907Z,1.00
2018-01-18T15:21:38.786Z,1.25
2018-01-18T15:24:08.666Z,1.85
2018-01-18T15:26:38.471Z,0.80
2018-01-18T15:29:08.346Z,1.02
2018-01-18T15:31:39.176Z,0.90
2018-01-18T15:34:09.016Z,0.70
2018-01-18T15:36:40.505Z,2.15
2018-01-18T15:39:10.371Z,2.67
2018-01-18T15:41:41.137Z,1.40
2018-01-18T15:44:11.215Z,1.35
2018-01-18T15:46:42.649Z,1.25
2018-01-18T15:49:12.664Z,1.25
2018-01-18T15:51:42.504Z,1.27
2018-01-18T15:54:12.362Z,1.12
2018-01-18T15:56:43.016Z,1.12
2018-01-18T15:59:12.881Z,1.40
2018-01-18T16:01:42.711Z,1.27
2018-01-18T16:04:12.588Z,1.40
2018-01-18T16:06:42.599Z,1.52
2018-01-18T16:09:12.447Z,1.20
2018-01-18T16:11:42.301Z,1.80
2018-01-18T16:14:13.044Z,1.30
2018-01-18T16:16:42.939Z,1.75
2018-01-18T16:19:13.619Z,1.30
2018-01-18T16:21:43.452Z,1.83
2018-01-18T16:24:13.323Z,1.60
2018-01-18T16:26:43.166Z,2.15
2018-01-18T16:29:13.032Z,1.70
2018-01-18T16:31:42.857Z,1.20
2018-01-18T16:34:12.704Z,0.98
2018-01-18T16:36:42.538Z,1.58
2018-01-18T16:39:13.378Z,1.60
2018-01-18T16:41:43.229Z,1.23
2018-01-18T16:44:13.097Z,1.50
2018-01-18T16:46:43.024Z,1.50
2018-01-18T16:49:13.036Z,1.62
2018-01-18T16:51:42.845Z,1.10
2018-01-18T16:54:13.803Z,1.02
2018-01-18T16:56:43.658Z,1.95
2018-01-18T16:59:13.580Z,1.70
2018-01-18T17:01:43.580Z,0.95
2018-01-18T17:04:13.411Z,0.85
2018-01-18T17:06:43.424Z,1.55
2018-01-18T17:09:13.299Z,1.20
2018-01-18T17:11:43.117Z,0.80
2018-01-18T17:14:13.795Z,0.98
2018-01-18T17:16:43.787Z,1.27
2018-01-18T17:19:13.705Z,0.90
2018-01-18T17:21:43.362Z,0.85
2018-01-18T17:24:13.159Z,0.70
2018-01-18T17:26:43.026Z,0.70
2018-01-18T17:29:13.678Z,0.90
2018-01-18T17:31:43.688Z,0.75
2018-01-18T17:34:13.556Z,0.60
2018-01-18T17:36:43.524Z,0.70
2018-01-18T17:39:13.639Z,0.60
2018-01-18T17:41:43.492Z,0.57
2018-01-18T17:44:13.355Z,0.77
2018-01-18T17:46:43.188Z,1.17
2018-01-18T17:49:13.810Z,1.08
2018-01-18T17:51:43.632Z,0.90
2018-01-18T17:54:14.389Z,1.42
2018-01-18T17:56:45.005Z,1.00
2018-01-18T17:59:14.819Z,1.20
2018-01-18T18:01:44.683Z,1.30
2018-01-18T18:04:15.256Z,1.42
2018-01-18T18:06:45.111Z,1.60
2018-01-18T18:09:14.935Z,1.92
2018-01-18T18:11:44.771Z,1.40
2018-01-18T18:14:14.796Z,1.60
2018-01-18T18:16:44.807Z,2.12
2018-01-18T18:19:14.717Z,2.60
2018-01-18T18:21:45.598Z,2.20
2018-01-18T18:24:16.348Z,2.25
2018-01-18T18:26:47.064Z,1.55
2018-01-18T18:29:16.716Z,1.75
2018-01-18T18:31:46.587Z,2.22
2018-01-18T18:34:16.524Z,2.35
2018-01-18T18:36:46.379Z,2.28
2018-01-18T18:39:16.211Z,2.33
2018-01-18T18:41:46.213Z,3.40
2018-01-18T18:44:17.075Z,2.25
2018-01-18T18:46:46.931Z,2.42
2018-01-18T18:49:17.812Z,3.78
2018-01-18T18:51:47.708Z,3.80
2018-01-18T18:54:18.533Z,2.65
2018-01-18T18:56:48.509Z,2.65
2018-01-18T18:59:18.383Z,2.90
2018-01-18T19:01:48.243Z,3.37
2018-01-18T19:04:18.056Z,2.40
2018-01-18T19:06:47.940Z,2.45
2018-01-18T19:09:17.752Z,2.80
2018-01-18T19:11:47.656Z,2.65
2018-01-18T19:14:18.308Z,2.35
2018-01-18T19:16:49.153Z,3.08
2018-01-18T19:19:19.694Z,3.22
2018-01-18T19:21:51.214Z,3.20
2018-01-18T19:24:21.983Z,3.40
2018-01-18T19:26:51.946Z,2.60
2018-01-18T19:29:21.907Z,3.10
2018-01-18T19:31:51.768Z,2.50
2018-01-18T19:34:21.812Z,2.12
2018-01-18T19:36:51.637Z,2.30
2018-01-18T19:39:21.459Z,2.60
2018-01-18T19:41:51.369Z,2.30
2018-01-18T19:44:21.219Z,2.67
2018-01-18T19:46:50.895Z,2.62
2018-01-18T19:49:20.850Z,2.42
2018-01-18T19:51:50.703Z,1.50
2018-01-18T19:54:20.594Z,1.80
2018-01-18T19:56:50.436Z,2.33
2018-01-18T19:59:21.087Z,3.75
2018-01-18T20:01:50.983Z,2.08
2018-01-18T20:04:20.803Z,1.90
2018-01-18T20:06:51.403Z,2.40
2018-01-18T20:09:21.825Z,2.05
2018-01-18T20:11:51.797Z,1.92
2018-01-18T20:14:23.643Z,1.95
2018-01-18T20:16:54.269Z,1.30
2018-01-18T20:19:24.702Z,1.50
2018-01-18T20:21:55.296Z,1.75
2018-01-18T20:24:25.936Z,2.05
2018-01-18T20:26:55.818Z,1.62
2018-01-18T20:29:26.577Z,1.40
2018-01-18T20:31:56.411Z,1.58
2018-01-18T20:34:28.916Z,1.73
2018-01-18T20:36:58.972Z,1.50
2018-01-18T20:39:31.039Z,1.95
2018-01-18T20:42:01.543Z,1.10
2018-01-18T20:44:32.051Z,1.55
2018-01-18T20:47:02.688Z,1.87
2018-01-18T20:49:32.704Z,1.60
2018-01-18T20:52:02.667Z,2.20
2018-01-18T20:54:33.068Z,2.33
2018-01-18T20:57:02.984Z,1.80
2018-01-18T20:59:34.860Z,1.80
2018-01-18T21:02:05.559Z,1.73
2018-01-18T21:04:35.699Z,3.62
2018-01-18T21:07:06.112Z,5.75
2018-01-18T21:09:36.745Z,5.12
2018-01-18T21:12:07.372Z,2.03
2018-01-18T21:14:38.039Z,2.00
2018-01-18T21:17:07.891Z,2.08
2018-01-18T21:19:37.741Z,2.55
2018-01-18T21:22:07.685Z,2.47
2018-01-18T21:24:37.515Z,2.53
2018-01-18T21:27:07.384Z,2.37
2018-01-18T21:29:38.074Z,2.00
2018-01-18T21:32:07.957Z,2.40
2018-01-18T21:34:38.929Z,2.72
2018-01-18T21:37:08.899Z,2.03
2018-01-18T21:39:38.768Z,1.98
2018-01-18T21:42:09.024Z,3.15
2018-01-18T21:44:44.623Z,2.65
2018-01-18T21:47:14.532Z,2.92
2018-01-18T21:49:44.117Z,2.10
2018-01-18T21:52:13.979Z,2.60
2018-01-18T21:54:43.825Z,2.00
2018-01-18T21:57:14.524Z,2.70
2018-01-18T21:59:44.404Z,1.60
2018-01-18T22:02:14.255Z,2.00
2018-01-18T22:04:45.133Z,2.40
2018-01-18T22:07:15.052Z,2.20
2018-01-18T22:09:45.681Z,2.70
2018-01-18T22:12:15.535Z,2.00
2018-01-18T22:14:45.504Z,2.40
2018-01-18T22:17:15.331Z,2.50
2018-01-18T22:19:45.363Z,2.30
2018-01-18T22:22:15.203Z,3.00
2018-01-18T22:24:45.064Z,2.65
2018-01-18T22:27:15.004Z,3.12
2018-01-18T22:29:45.122Z,3.20
2018-01-18T22:32:15.734Z,3.17
2018-01-18T22:34:45.544Z,2.92
2018-01-18T22:37:15.428Z,4.37
2018-01-18T22:39:45.451Z,3.53
2018-01-18T22:42:15.417Z,4.00
2018-01-18T22:44:45.267Z,3.78
2018-01-18T22:47:15.124Z,4.20
2018-01-18T22:49:45.138Z,3.70
2018-01-18T22:52:14.996Z,4.28
2018-01-18T22:54:44.898Z,4.15
2018-01-18T22:57:14.800Z,2.95
2018-01-18T22:59:46.377Z,3.83
2018-01-18T23:02:16.331Z,4.85
2018-01-18T23:04:46.376Z,4.00
2018-01-18T23:07:17.159Z,4.65
2018-01-18T23:09:46.988Z,3.17
2018-01-18T23:12:16.989Z,5.32
2018-01-18T23:14:53.804Z,5.10
2018-01-18T23:17:23.825Z,5.75
2018-01-18T23:19:53.863Z,5.32
2018-01-18T23:22:24.507Z,5.18
2018-01-18T23:24:57.503Z,5.50
2018-01-18T23:27:27.555Z,3.08
2018-01-18T23:29:56.961Z,4.87
2018-01-18T23:32:26.584Z,4.25
2018-01-18T23:34:57.166Z,4.87
2018-01-18T23:37:27.016Z,4.95
2018-01-18T23:39:56.691Z,4.57
2018-01-18T23:42:27.786Z,5.28
2018-01-18T23:44:57.779Z,4.47
2018-01-18T23:47:27.646Z,5.10
2018-01-18T23:49:57.512Z,4.65
2018-01-18T23:52:29.258Z,5.60
2018-01-18T23:54:59.139Z,5.37
2018-01-18T23:57:29.018Z,4.68
2018-01-18T23:59:58.897Z,5.05
